sensor_id;sensor_type;location;lat;lon;timestamp;P1;durP1;ratioP1;P2;durP2;ratioP2
434;SDS011;204;48.942;9.256;2023-06-22T00:01:47;9.23;;;8.20;;
434;SDS011;204;48.942;9.256;2023-06-22T00:04:13;7.70;;;7.27;;
434;SDS011;204;48.942;9.256;2023-06-22T00:06:38;9.50;;;9.00;;
434;SDS011;204;48.942;9.256;2023-06-22T00:09:04;10.13;;;7.83;;
434;SDS011;204;48.942;9.256;2023-06-22T00:11:31;10.23;;;8.47;;
434;SDS011;204;48.942;9.256;2023-06-22T00:13:58;8.53;;;8.07;;
434;SDS011;204;48.942;9.256;2023-06-22T00:16:24;9.50;;;9.00;;
434;SDS011;204;48.942;9.256;2023-06-22T00:18:49;9.50;;;8.07;;
434;SDS011;204;48.942;9.256;2023-06-22T00:21:15;10.23;;;9.60;;
434;SDS011;204;48.942;9.256;2023-06-22T00:23:45;8.87;;;8.20;;
434;SDS011;204;48.942;9.256;2023-06-22T00:26:11;11.50;;;8.63;;
434;SDS011;204;48.942;9.256;2023-06-22T00:28:36;7.97;;;7.53;;
434;SDS011;204;48.942;9.256;2023-06-22T00:31:02;10.33;;;8.53;;
434;SDS011;204;48.942;9.256;2023-06-22T00:33:27;8.77;;;8.27;;
434;SDS011;204;48.942;9.256;2023-06-22T00:35:53;8.87;;;8.37;;
434;SDS011;204;48.942;9.256;2023-06-22T00:38:19;9.37;;;8.10;;
434;SDS011;204;48.942;9.256;2023-06-22T00:40:45;17.37;;;8.67;;
434;SDS011;204;48.942;9.256;2023-06-22T00:43:10;8.80;;;8.30;;
434;SDS011;204;48.942;9.256;2023-06-22T00:45:36;8.50;;;8.03;;
434;SDS011;204;48.942;9.256;2023-06-22T00:48:03;8.87;;;8.37;;
434;SDS011;204;48.942;9.256;2023-06-22T00:50:30;12.60;;;8.70;;
434;SDS011;204;48.942;9.256;2023-06-22T00:52:59;11.60;;;9.30;;
434;SDS011;204;48.942;9.256;2023-06-22T00:55:26;10.00;;;9.50;;
434;SDS011;204;48.942;9.256;2023-06-22T00:57:53;10.73;;;10.13;;
434;SDS011;204;48.942;9.256;2023-06-22T01:00:20;9.60;;;9.13;;
434;SDS011;204;48.942;9.256;2023-06-22T01:02:49;9.27;;;8.50;;
434;SDS011;204;48.942;9.256;2023-06-22T01:05:17;10.90;;;9.73;;
434;SDS011;204;48.942;9.256;2023-06-22T01:13:21;10.90;;;9.50;;
434;SDS011;204;48.942;9.256;2023-06-22T01:16:20;12.37;;;11.57;;
434;SDS011;204;48.942;9.256;2023-06-22T01:19:00;12.70;;;11.23;;
434;SDS011;204;48.942;9.256;2023-06-22T01:21:34;13.20;;;9.53;;
434;SDS011;204;48.942;9.256;2023-06-22T01:29:58;11.00;;;9.60;;
434;SDS011;204;48.942;9.256;2023-06-22T01:32:34;14.83;;;9.93;;
434;SDS011;204;48.942;9.256;2023-06-22T01:35:03;11.97;;;10.30;;
434;SDS011;204;48.942;9.256;2023-06-22T01:37:30;12.23;;;10.73;;
434;SDS011;204;48.942;9.256;2023-06-22T01:39:58;10.30;;;9.80;;
434;SDS011;204;48.942;9.256;2023-06-22T01:42:24;11.17;;;10.60;;
434;SDS011;204;48.942;9.256;2023-06-22T01:44:54;11.70;;;10.20;;
434;SDS011;204;48.942;9.256;2023-06-22T01:47:21;10.90;;;10.30;;
434;SDS011;204;48.942;9.256;2023-06-22T01:49:48;10.70;;;9.60;;
434;SDS011;204;48.942;9.256;2023-06-22T01:52:14;9.83;;;9.33;;
434;SDS011;204;48.942;9.256;2023-06-22T01:54:41;10.80;;;10.20;;
434;SDS011;204;48.942;9.256;2023-06-22T01:57:07;13.23;;;9.03;;
434;SDS011;204;48.942;9.256;2023-06-22T01:59:34;10.93;;;10.33;;
434;SDS011;204;48.942;9.256;2023-06-22T02:02:12;11.17;;;10.57;;
434;SDS011;204;48.942;9.256;2023-06-22T02:04:51;12.33;;;10.90;;
434;SDS011;204;48.942;9.256;2023-06-22T02:07:23;13.43;;;10.70;;
434;SDS011;204;48.942;9.256;2023-06-22T02:09:53;11.90;;;8.83;;
434;SDS011;204;48.942;9.256;2023-06-22T02:12:22;11.37;;;10.63;;
434;SDS011;204;48.942;9.256;2023-06-22T02:14:49;11.63;;;10.40;;
434;SDS011;204;48.942;9.256;2023-06-22T02:17:17;10.97;;;10.37;;
434;SDS011;204;48.942;9.256;2023-06-22T02:19:43;10.97;;;10.33;;
434;SDS011;204;48.942;9.256;2023-06-22T02:22:09;11.00;;;9.50;;
434;SDS011;204;48.942;9.256;2023-06-22T02:24:34;10.10;;;9.60;;
434;SDS011;204;48.942;9.256;2023-06-22T02:27:00;10.63;;;10.03;;
434;SDS011;204;48.942;9.256;2023-06-22T02:29:27;10.37;;;9.87;;
434;SDS011;204;48.942;9.256;2023-06-22T02:31:53;10.40;;;9.87;;
434;SDS011;204;48.942;9.256;2023-06-22T02:34:21;9.87;;;9.37;;
434;SDS011;204;48.942;9.256;2023-06-22T02:36:49;13.13;;;10.70;;
434;SDS011;204;48.942;9.256;2023-06-22T02:39:21;9.97;;;9.10;;
434;SDS011;204;48.942;9.256;2023-06-22T02:41:51;14.10;;;8.73;;
434;SDS011;204;48.942;9.256;2023-06-22T02:44:18;9.40;;;8.80;;
434;SDS011;204;48.942;9.256;2023-06-22T02:46:44;10.20;;;9.70;;
434;SDS011;204;48.942;9.256;2023-06-22T02:49:10;9.83;;;9.33;;
434;SDS011;204;48.942;9.256;2023-06-22T02:51:38;9.57;;;9.07;;
434;SDS011;204;48.942;9.256;2023-06-22T02:54:05;13.83;;;9.57;;
434;SDS011;204;48.942;9.256;2023-06-22T02:56:31;9.80;;;9.30;;
434;SDS011;204;48.942;9.256;2023-06-22T02:58:56;8.90;;;8.40;;
434;SDS011;204;48.942;9.256;2023-06-22T03:01:29;10.37;;;9.87;;
434;SDS011;204;48.942;9.256;2023-06-22T03:04:04;13.40;;;12.00;;
434;SDS011;204;48.942;9.256;2023-06-22T03:06:33;15.30;;;10.60;;
434;SDS011;204;48.942;9.256;2023-06-22T03:09:00;11.00;;;10.40;;
434;SDS011;204;48.942;9.256;2023-06-22T03:11:33;13.40;;;12.70;;
434;SDS011;204;48.942;9.256;2023-06-22T03:13:59;9.70;;;9.10;;
434;SDS011;204;48.942;9.256;2023-06-22T03:16:26;10.80;;;10.20;;
434;SDS011;204;48.942;9.256;2023-06-22T03:18:52;13.77;;;10.90;;
434;SDS011;204;48.942;9.256;2023-06-22T03:21:18;11.57;;;10.27;;
434;SDS011;204;48.942;9.256;2023-06-22T03:23:45;12.00;;;11.10;;
434;SDS011;204;48.942;9.256;2023-06-22T03:26:10;10.20;;;9.60;;
434;SDS011;204;48.942;9.256;2023-06-22T03:28:37;12.50;;;9.50;;
434;SDS011;204;48.942;9.256;2023-06-22T03:31:03;12.03;;;10.00;;
434;SDS011;204;48.942;9.256;2023-06-22T03:33:31;11.10;;;10.50;;
434;SDS011;204;48.942;9.256;2023-06-22T03:35:57;11.00;;;10.40;;
434;SDS011;204;48.942;9.256;2023-06-22T03:38:22;11.50;;;10.30;;
434;SDS011;204;48.942;9.256;2023-06-22T03:40:48;16.93;;;11.30;;
434;SDS011;204;48.942;9.256;2023-06-22T03:43:13;12.70;;;12.00;;
434;SDS011;204;48.942;9.256;2023-06-22T03:45:39;11.93;;;11.10;;
434;SDS011;204;48.942;9.256;2023-06-22T03:48:05;13.93;;;11.67;;
434;SDS011;204;48.942;9.256;2023-06-22T03:50:31;10.23;;;9.73;;
434;SDS011;204;48.942;9.256;2023-06-22T03:52:56;9.73;;;9.23;;
434;SDS011;204;48.942;9.256;2023-06-22T03:55:22;11.63;;;10.00;;
434;SDS011;204;48.942;9.256;2023-06-22T03:57:47;14.03;;;10.83;;
434;SDS011;204;48.942;9.256;2023-06-22T04:00:13;12.37;;;11.10;;
434;SDS011;204;48.942;9.256;2023-06-22T04:02:40;12.83;;;11.07;;
434;SDS011;204;48.942;9.256;2023-06-22T04:05:08;13.30;;;11.00;;
434;SDS011;204;48.942;9.256;2023-06-22T04:07:34;13.00;;;10.20;;
434;SDS011;204;48.942;9.256;2023-06-22T04:10:02;12.10;;;11.03;;
434;SDS011;204;48.942;9.256;2023-06-22T04:12:28;16.27;;;11.97;;
434;SDS011;204;48.942;9.256;2023-06-22T04:14:54;12.93;;;11.93;;
434;SDS011;204;48.942;9.256;2023-06-22T04:17:19;11.23;;;10.63;;
434;SDS011;204;48.942;9.256;2023-06-22T04:19:45;14.20;;;11.57;;
434;SDS011;204;48.942;9.256;2023-06-22T04:22:11;15.70;;;12.03;;
434;SDS011;204;48.942;9.256;2023-06-22T04:24:36;10.07;;;9.57;;
434;SDS011;204;48.942;9.256;2023-06-22T04:27:02;10.77;;;10.17;;
434;SDS011;204;48.942;9.256;2023-06-22T04:29:29;12.83;;;10.23;;
434;SDS011;204;48.942;9.256;2023-06-22T04:31:55;11.50;;;10.90;;
434;SDS011;204;48.942;9.256;2023-06-22T04:34:23;11.20;;;10.60;;
434;SDS011;204;48.942;9.256;2023-06-22T04:36:51;14.60;;;11.93;;
434;SDS011;204;48.942;9.256;2023-06-22T04:39:17;12.03;;;11.47;;
434;SDS011;204;48.942;9.256;2023-06-22T04:41:43;11.40;;;10.80;;
434;SDS011;204;48.942;9.256;2023-06-22T04:44:12;13.60;;;11.93;;
434;SDS011;204;48.942;9.256;2023-06-22T04:46:39;12.00;;;11.40;;
434;SDS011;204;48.942;9.256;2023-06-22T04:49:05;16.77;;;13.13;;
434;SDS011;204;48.942;9.256;2023-06-22T04:51:36;15.20;;;11.33;;
434;SDS011;204;48.942;9.256;2023-06-22T04:54:06;18.80;;;10.87;;
434;SDS011;204;48.942;9.256;2023-06-22T04:56:32;12.60;;;10.90;;
434;SDS011;204;48.942;9.256;2023-06-22T04:58:58;12.83;;;10.23;;
434;SDS011;204;48.942;9.256;2023-06-22T05:01:24;10.13;;;8.30;;
434;SDS011;204;48.942;9.256;2023-06-22T05:03:50;11.80;;;9.30;;
434;SDS011;204;48.942;9.256;2023-06-22T05:06:20;11.13;;;9.53;;
434;SDS011;204;48.942;9.256;2023-06-22T05:08:46;10.17;;;9.57;;
434;SDS011;204;48.942;9.256;2023-06-22T05:11:12;12.77;;;10.40;;
434;SDS011;204;48.942;9.256;2023-06-22T05:13:37;9.40;;;8.90;;
434;SDS011;204;48.942;9.256;2023-06-22T05:16:03;13.13;;;8.83;;
434;SDS011;204;48.942;9.256;2023-06-22T05:18:31;12.87;;;10.23;;
434;SDS011;204;48.942;9.256;2023-06-22T05:20:57;12.53;;;9.07;;
434;SDS011;204;48.942;9.256;2023-06-22T05:23:24;9.53;;;8.73;;
434;SDS011;204;48.942;9.256;2023-06-22T05:25:50;8.87;;;7.77;;
434;SDS011;204;48.942;9.256;2023-06-22T05:28:16;8.97;;;8.30;;
434;SDS011;204;48.942;9.256;2023-06-22T05:30:42;10.70;;;9.27;;
434;SDS011;204;48.942;9.256;2023-06-22T05:33:07;9.33;;;8.83;;
434;SDS011;204;48.942;9.256;2023-06-22T05:35:33;8.90;;;8.47;;
434;SDS011;204;48.942;9.256;2023-06-22T05:37:58;10.73;;;10.13;;
434;SDS011;204;48.942;9.256;2023-06-22T05:40:24;11.97;;;9.13;;
434;SDS011;204;48.942;9.256;2023-06-22T05:42:49;9.63;;;9.13;;
434;SDS011;204;48.942;9.256;2023-06-22T05:45:15;8.57;;;7.83;;
434;SDS011;204;48.942;9.256;2023-06-22T05:47:41;9.27;;;8.77;;
434;SDS011;204;48.942;9.256;2023-06-22T05:50:06;11.53;;;8.97;;
434;SDS011;204;48.942;9.256;2023-06-22T05:52:33;9.70;;;9.03;;
434;SDS011;204;48.942;9.256;2023-06-22T05:54:59;8.97;;;8.50;;
434;SDS011;204;48.942;9.256;2023-06-22T05:57:25;9.17;;;8.67;;
434;SDS011;204;48.942;9.256;2023-06-22T05:59:50;8.50;;;7.53;;
434;SDS011;204;48.942;9.256;2023-06-22T06:02:16;10.90;;;8.00;;
434;SDS011;204;48.942;9.256;2023-06-22T06:04:42;7.53;;;7.13;;
434;SDS011;204;48.942;9.256;2023-06-22T06:07:07;15.90;;;7.50;;
434;SDS011;204;48.942;9.256;2023-06-22T06:09:33;7.17;;;6.77;;
434;SDS011;204;48.942;9.256;2023-06-22T06:11:59;8.10;;;7.70;;
434;SDS011;204;48.942;9.256;2023-06-22T06:14:24;7.13;;;6.73;;
434;SDS011;204;48.942;9.256;2023-06-22T06:16:50;8.80;;;7.20;;
434;SDS011;204;48.942;9.256;2023-06-22T06:19:15;8.43;;;6.93;;
434;SDS011;204;48.942;9.256;2023-06-22T06:21:41;7.40;;;7.00;;
434;SDS011;204;48.942;9.256;2023-06-22T06:24:06;7.30;;;6.90;;
434;SDS011;204;48.942;9.256;2023-06-22T06:26:32;7.80;;;7.17;;
434;SDS011;204;48.942;9.256;2023-06-22T06:28:59;8.20;;;7.80;;
434;SDS011;204;48.942;9.256;2023-06-22T06:31:25;9.20;;;7.63;;
434;SDS011;204;48.942;9.256;2023-06-22T06:33:54;8.00;;;7.60;;
434;SDS011;204;48.942;9.256;2023-06-22T06:36:20;7.40;;;6.57;;
434;SDS011;204;48.942;9.256;2023-06-22T06:38:46;9.33;;;6.13;;
434;SDS011;204;48.942;9.256;2023-06-22T06:41:15;7.63;;;6.83;;
434;SDS011;204;48.942;9.256;2023-06-22T06:43:41;5.73;;;5.37;;
434;SDS011;204;48.942;9.256;2023-06-22T06:46:10;8.90;;;7.63;;
434;SDS011;204;48.942;9.256;2023-06-22T06:48:36;7.13;;;6.73;;
434;SDS011;204;48.942;9.256;2023-06-22T06:51:01;9.07;;;6.80;;
434;SDS011;204;48.942;9.256;2023-06-22T06:53:27;8.00;;;6.00;;
434;SDS011;204;48.942;9.256;2023-06-22T06:55:53;6.63;;;5.90;;
434;SDS011;204;48.942;9.256;2023-06-22T06:58:19;6.70;;;6.30;;
434;SDS011;204;48.942;9.256;2023-06-22T07:00:45;10.30;;;6.97;;
434;SDS011;204;48.942;9.256;2023-06-22T07:03:10;6.70;;;6.30;;
434;SDS011;204;48.942;9.256;2023-06-22T07:05:36;8.47;;;7.23;;
434;SDS011;204;48.942;9.256;2023-06-22T07:08:02;6.00;;;5.23;;
434;SDS011;204;48.942;9.256;2023-06-22T07:10:28;7.57;;;7.13;;
434;SDS011;204;48.942;9.256;2023-06-22T07:12:53;7.10;;;6.70;;
434;SDS011;204;48.942;9.256;2023-06-22T07:15:22;6.27;;;5.93;;
434;SDS011;204;48.942;9.256;2023-06-22T07:17:48;6.20;;;5.90;;
434;SDS011;204;48.942;9.256;2023-06-22T07:20:13;6.60;;;6.20;;
434;SDS011;204;48.942;9.256;2023-06-22T07:22:39;6.13;;;5.80;;
434;SDS011;204;48.942;9.256;2023-06-22T07:25:06;7.20;;;6.10;;
434;SDS011;204;48.942;9.256;2023-06-22T07:27:36;6.07;;;5.77;;
434;SDS011;204;48.942;9.256;2023-06-22T07:30:03;6.23;;;5.90;;
434;SDS011;204;48.942;9.256;2023-06-22T07:32:29;7.87;;;6.93;;
434;SDS011;204;48.942;9.256;2023-06-22T07:34:55;7.97;;;6.40;;
434;SDS011;204;48.942;9.256;2023-06-22T07:37:20;6.40;;;6.00;;
434;SDS011;204;48.942;9.256;2023-06-22T07:39:46;6.97;;;6.57;;
434;SDS011;204;48.942;9.256;2023-06-22T07:42:11;6.73;;;5.70;;
434;SDS011;204;48.942;9.256;2023-06-22T07:44:37;6.57;;;5.60;;
434;SDS011;204;48.942;9.256;2023-06-22T07:47:02;7.30;;;5.90;;
434;SDS011;204;48.942;9.256;2023-06-22T07:49:28;6.73;;;5.80;;
434;SDS011;204;48.942;9.256;2023-06-22T07:51:54;7.50;;;6.10;;
434;SDS011;204;48.942;9.256;2023-06-22T07:54:20;7.13;;;6.10;;
434;SDS011;204;48.942;9.256;2023-06-22T07:56:46;7.40;;;6.43;;
434;SDS011;204;48.942;9.256;2023-06-22T07:59:11;8.03;;;6.40;;
434;SDS011;204;48.942;9.256;2023-06-22T08:01:37;6.90;;;6.50;;
434;SDS011;204;48.942;9.256;2023-06-22T08:04:02;6.70;;;6.30;;
434;SDS011;204;48.942;9.256;2023-06-22T08:06:29;7.57;;;6.23;;
434;SDS011;204;48.942;9.256;2023-06-22T08:08:55;8.90;;;7.10;;
434;SDS011;204;48.942;9.256;2023-06-22T08:11:21;6.70;;;6.37;;
434;SDS011;204;48.942;9.256;2023-06-22T08:13:48;6.40;;;6.00;;
434;SDS011;204;48.942;9.256;2023-06-22T08:16:14;6.17;;;5.90;;
434;SDS011;204;48.942;9.256;2023-06-22T08:18:40;7.63;;;6.97;;
434;SDS011;204;48.942;9.256;2023-06-22T08:21:05;6.20;;;5.90;;
434;SDS011;204;48.942;9.256;2023-06-22T08:23:31;6.10;;;5.80;;
434;SDS011;204;48.942;9.256;2023-06-22T08:25:56;6.97;;;5.87;;
434;SDS011;204;48.942;9.256;2023-06-22T08:28:22;5.77;;;5.47;;
434;SDS011;204;48.942;9.256;2023-06-22T08:30:47;6.70;;;5.80;;
434;SDS011;204;48.942;9.256;2023-06-22T08:33:13;7.93;;;6.30;;
434;SDS011;204;48.942;9.256;2023-06-22T08:35:38;6.50;;;5.50;;
434;SDS011;204;48.942;9.256;2023-06-22T08:38:04;7.57;;;5.73;;
434;SDS011;204;48.942;9.256;2023-06-22T08:40:30;6.70;;;6.07;;
434;SDS011;204;48.942;9.256;2023-06-22T08:42:55;7.17;;;6.60;;
434;SDS011;204;48.942;9.256;2023-06-22T08:45:21;6.13;;;5.40;;
434;SDS011;204;48.942;9.256;2023-06-22T08:47:46;5.33;;;5.03;;
434;SDS011;204;48.942;9.256;2023-06-22T08:50:12;6.70;;;6.30;;
434;SDS011;204;48.942;9.256;2023-06-22T08:52:38;8.87;;;6.30;;
434;SDS011;204;48.942;9.256;2023-06-22T08:55:08;6.03;;;5.77;;
434;SDS011;204;48.942;9.256;2023-06-22T08:57:34;7.00;;;5.23;;
434;SDS011;204;48.942;9.256;2023-06-22T09:00:03;8.17;;;5.70;;
434;SDS011;204;48.942;9.256;2023-06-22T09:02:30;8.33;;;6.00;;
434;SDS011;204;48.942;9.256;2023-06-22T09:04:56;5.10;;;4.80;;
434;SDS011;204;48.942;9.256;2023-06-22T09:07:23;4.97;;;4.67;;
434;SDS011;204;48.942;9.256;2023-06-22T09:09:50;4.67;;;4.40;;
434;SDS011;204;48.942;9.256;2023-06-22T09:12:16;10.53;;;5.17;;
434;SDS011;204;48.942;9.256;2023-06-22T09:14:42;6.77;;;4.90;;
434;SDS011;204;48.942;9.256;2023-06-22T09:17:08;11.10;;;5.67;;
434;SDS011;204;48.942;9.256;2023-06-22T09:19:33;8.03;;;5.60;;
434;SDS011;204;48.942;9.256;2023-06-22T09:21:59;6.40;;;5.03;;
434;SDS011;204;48.942;9.256;2023-06-22T09:24:25;8.43;;;5.87;;
434;SDS011;204;48.942;9.256;2023-06-22T09:26:51;14.30;;;6.43;;
434;SDS011;204;48.942;9.256;2023-06-22T09:29:16;12.03;;;6.00;;
434;SDS011;204;48.942;9.256;2023-06-22T09:31:42;6.20;;;5.90;;
434;SDS011;204;48.942;9.256;2023-06-22T09:34:07;6.20;;;5.90;;
434;SDS011;204;48.942;9.256;2023-06-22T09:36:33;8.77;;;6.00;;
434;SDS011;204;48.942;9.256;2023-06-22T09:38:59;9.03;;;4.97;;
434;SDS011;204;48.942;9.256;2023-06-22T09:41:30;6.07;;;4.57;;
434;SDS011;204;48.942;9.256;2023-06-22T09:43:56;6.97;;;5.67;;
434;SDS011;204;48.942;9.256;2023-06-22T09:46:21;6.90;;;5.50;;
434;SDS011;204;48.942;9.256;2023-06-22T09:48:50;7.77;;;5.37;;
434;SDS011;204;48.942;9.256;2023-06-22T09:51:15;6.73;;;5.73;;
434;SDS011;204;48.942;9.256;2023-06-22T09:53:41;5.60;;;5.30;;
434;SDS011;204;48.942;9.256;2023-06-22T09:56:07;6.30;;;4.33;;
434;SDS011;204;48.942;9.256;2023-06-22T09:58:36;6.10;;;5.83;;
434;SDS011;204;48.942;9.256;2023-06-22T10:01:01;5.47;;;5.17;;
434;SDS011;204;48.942;9.256;2023-06-22T10:03:27;6.30;;;5.70;;
434;SDS011;204;48.942;9.256;2023-06-22T10:05:52;7.37;;;5.73;;
434;SDS011;204;48.942;9.256;2023-06-22T10:08:18;5.60;;;5.30;;
434;SDS011;204;48.942;9.256;2023-06-22T10:10:43;8.60;;;5.80;;
434;SDS011;204;48.942;9.256;2023-06-22T10:13:09;9.10;;;5.90;;
434;SDS011;204;48.942;9.256;2023-06-22T10:15:36;8.17;;;5.27;;
434;SDS011;204;48.942;9.256;2023-06-22T10:18:02;6.17;;;4.90;;
434;SDS011;204;48.942;9.256;2023-06-22T10:20:27;8.90;;;5.00;;
434;SDS011;204;48.942;9.256;2023-06-22T10:22:53;5.97;;;5.00;;
434;SDS011;204;48.942;9.256;2023-06-22T10:25:18;10.43;;;5.87;;
434;SDS011;204;48.942;9.256;2023-06-22T10:27:44;6.80;;;5.67;;
434;SDS011;204;48.942;9.256;2023-06-22T10:30:10;8.63;;;5.00;;
434;SDS011;204;48.942;9.256;2023-06-22T10:32:38;8.90;;;4.60;;
434;SDS011;204;48.942;9.256;2023-06-22T10:35:04;8.00;;;4.60;;
434;SDS011;204;48.942;9.256;2023-06-22T10:37:30;6.27;;;5.20;;
434;SDS011;204;48.942;9.256;2023-06-22T10:39:56;5.67;;;5.13;;
434;SDS011;204;48.942;9.256;2023-06-22T10:42:21;8.70;;;4.70;;
434;SDS011;204;48.942;9.256;2023-06-22T10:44:47;9.67;;;6.40;;
434;SDS011;204;48.942;9.256;2023-06-22T10:47:13;10.27;;;5.03;;
434;SDS011;204;48.942;9.256;2023-06-22T10:49:39;8.80;;;5.30;;
434;SDS011;204;48.942;9.256;2023-06-22T10:52:05;6.20;;;4.93;;
434;SDS011;204;48.942;9.256;2023-06-22T10:54:32;7.20;;;4.70;;
434;SDS011;204;48.942;9.256;2023-06-22T10:56:58;7.53;;;4.93;;
434;SDS011;204;48.942;9.256;2023-06-22T10:59:24;5.10;;;4.87;;
434;SDS011;204;48.942;9.256;2023-06-22T11:01:51;8.87;;;5.40;;
434;SDS011;204;48.942;9.256;2023-06-22T11:04:17;4.67;;;4.37;;
434;SDS011;204;48.942;9.256;2023-06-22T11:06:43;8.30;;;5.10;;
434;SDS011;204;48.942;9.256;2023-06-22T11:09:08;6.40;;;5.30;;
434;SDS011;204;48.942;9.256;2023-06-22T11:11:34;5.57;;;5.10;;
434;SDS011;204;48.942;9.256;2023-06-22T11:13:59;10.67;;;5.30;;
434;SDS011;204;48.942;9.256;2023-06-22T11:16:25;10.37;;;5.63;;
434;SDS011;204;48.942;9.256;2023-06-22T11:18:51;8.73;;;5.87;;
434;SDS011;204;48.942;9.256;2023-06-22T11:21:16;8.40;;;4.30;;
434;SDS011;204;48.942;9.256;2023-06-22T11:23:42;8.77;;;5.53;;
434;SDS011;204;48.942;9.256;2023-06-22T11:26:08;10.20;;;4.73;;
434;SDS011;204;48.942;9.256;2023-06-22T11:28:33;13.07;;;5.90;;
434;SDS011;204;48.942;9.256;2023-06-22T11:30:59;8.33;;;5.83;;
434;SDS011;204;48.942;9.256;2023-06-22T11:33:25;9.00;;;5.33;;
434;SDS011;204;48.942;9.256;2023-06-22T11:35:50;9.30;;;5.13;;
434;SDS011;204;48.942;9.256;2023-06-22T11:38:16;10.87;;;5.47;;
434;SDS011;204;48.942;9.256;2023-06-22T11:40:42;9.80;;;5.13;;
434;SDS011;204;48.942;9.256;2023-06-22T11:43:07;7.87;;;4.70;;
434;SDS011;204;48.942;9.256;2023-06-22T11:45:33;8.30;;;4.97;;
434;SDS011;204;48.942;9.256;2023-06-22T11:47:58;7.97;;;5.40;;
434;SDS011;204;48.942;9.256;2023-06-22T11:50:24;6.63;;;5.30;;
434;SDS011;204;48.942;9.256;2023-06-22T11:52:50;11.67;;;5.30;;
434;SDS011;204;48.942;9.256;2023-06-22T11:55:17;5.97;;;5.20;;
434;SDS011;204;48.942;9.256;2023-06-22T11:57:53;8.47;;;4.87;;
434;SDS011;204;48.942;9.256;2023-06-22T12:00:21;9.73;;;6.67;;
434;SDS011;204;48.942;9.256;2023-06-22T12:02:48;10.00;;;8.13;;
434;SDS011;204;48.942;9.256;2023-06-22T12:05:16;9.70;;;6.77;;
434;SDS011;204;48.942;9.256;2023-06-22T12:07:42;8.30;;;5.90;;
434;SDS011;204;48.942;9.256;2023-06-22T12:10:08;6.17;;;5.40;;
434;SDS011;204;48.942;9.256;2023-06-22T12:12:35;11.23;;;5.80;;
434;SDS011;204;48.942;9.256;2023-06-22T12:15:00;6.30;;;5.50;;
434;SDS011;204;48.942;9.256;2023-06-22T12:17:28;13.97;;;6.40;;
434;SDS011;204;48.942;9.256;2023-06-22T12:19:55;9.20;;;5.40;;
434;SDS011;204;48.942;9.256;2023-06-22T12:22:20;7.00;;;5.70;;
434;SDS011;204;48.942;9.256;2023-06-22T12:24:46;8.87;;;6.03;;
434;SDS011;204;48.942;9.256;2023-06-22T12:27:12;6.37;;;5.20;;
434;SDS011;204;48.942;9.256;2023-06-22T12:29:37;9.03;;;5.90;;
434;SDS011;204;48.942;9.256;2023-06-22T12:32:03;10.13;;;5.80;;
434;SDS011;204;48.942;9.256;2023-06-22T12:34:29;6.50;;;5.10;;
434;SDS011;204;48.942;9.256;2023-06-22T12:36:55;10.10;;;5.90;;
434;SDS011;204;48.942;9.256;2023-06-22T12:39:20;7.10;;;5.80;;
434;SDS011;204;48.942;9.256;2023-06-22T12:41:46;7.30;;;5.13;;
434;SDS011;204;48.942;9.256;2023-06-22T12:44:11;6.00;;;5.20;;
434;SDS011;204;48.942;9.256;2023-06-22T12:46:37;8.87;;;6.27;;
434;SDS011;204;48.942;9.256;2023-06-22T12:49:03;9.60;;;5.00;;
434;SDS011;204;48.942;9.256;2023-06-22T12:51:32;9.37;;;6.17;;
434;SDS011;204;48.942;9.256;2023-06-22T12:53:59;6.50;;;5.00;;
434;SDS011;204;48.942;9.256;2023-06-22T12:56:24;5.93;;;4.87;;
434;SDS011;204;48.942;9.256;2023-06-22T12:58:50;8.07;;;4.97;;
434;SDS011;204;48.942;9.256;2023-06-22T13:01:15;7.10;;;5.10;;
434;SDS011;204;48.942;9.256;2023-06-22T13:03:43;6.53;;;5.10;;
434;SDS011;204;48.942;9.256;2023-06-22T13:06:08;8.23;;;6.00;;
434;SDS011;204;48.942;9.256;2023-06-22T13:08:34;10.60;;;5.20;;
434;SDS011;204;48.942;9.256;2023-06-22T13:10:59;9.43;;;5.77;;
434;SDS011;204;48.942;9.256;2023-06-22T13:13:25;7.93;;;5.60;;
434;SDS011;204;48.942;9.256;2023-06-22T13:15:52;10.57;;;6.23;;
434;SDS011;204;48.942;9.256;2023-06-22T13:18:18;6.90;;;4.83;;
434;SDS011;204;48.942;9.256;2023-06-22T13:20:44;10.20;;;5.73;;
434;SDS011;204;48.942;9.256;2023-06-22T13:23:10;7.83;;;5.97;;
434;SDS011;204;48.942;9.256;2023-06-22T13:25:36;10.17;;;6.17;;
434;SDS011;204;48.942;9.256;2023-06-22T13:28:02;8.73;;;5.83;;
434;SDS011;204;48.942;9.256;2023-06-22T13:30:28;12.60;;;5.70;;
434;SDS011;204;48.942;9.256;2023-06-22T13:32:54;8.53;;;5.67;;
434;SDS011;204;48.942;9.256;2023-06-22T13:35:19;8.40;;;6.10;;
434;SDS011;204;48.942;9.256;2023-06-22T13:37:45;10.33;;;6.50;;
434;SDS011;204;48.942;9.256;2023-06-22T13:40:10;12.20;;;6.50;;
434;SDS011;204;48.942;9.256;2023-06-22T13:42:36;9.83;;;6.77;;
434;SDS011;204;48.942;9.256;2023-06-22T13:45:02;9.17;;;6.00;;
434;SDS011;204;48.942;9.256;2023-06-22T13:47:28;9.00;;;5.77;;
434;SDS011;204;48.942;9.256;2023-06-22T13:49:55;10.10;;;6.50;;
434;SDS011;204;48.942;9.256;2023-06-22T13:52:20;16.40;;;6.13;;
434;SDS011;204;48.942;9.256;2023-06-22T13:54:46;7.00;;;5.73;;
434;SDS011;204;48.942;9.256;2023-06-22T13:57:11;8.80;;;6.00;;
434;SDS011;204;48.942;9.256;2023-06-22T13:59:37;7.27;;;6.20;;
434;SDS011;204;48.942;9.256;2023-06-22T14:02:02;12.00;;;5.77;;
434;SDS011;204;48.942;9.256;2023-06-22T14:04:28;10.57;;;5.57;;
434;SDS011;204;48.942;9.256;2023-06-22T14:06:54;8.23;;;5.80;;
434;SDS011;204;48.942;9.256;2023-06-22T14:09:20;10.80;;;6.80;;
434;SDS011;204;48.942;9.256;2023-06-22T14:11:46;8.37;;;5.80;;
434;SDS011;204;48.942;9.256;2023-06-22T14:14:12;6.60;;;6.20;;
434;SDS011;204;48.942;9.256;2023-06-22T14:16:37;11.17;;;6.63;;
434;SDS011;204;48.942;9.256;2023-06-22T14:19:03;8.40;;;6.63;;
434;SDS011;204;48.942;9.256;2023-06-22T14:21:28;10.77;;;5.80;;
434;SDS011;204;48.942;9.256;2023-06-22T14:23:54;8.63;;;6.37;;
434;SDS011;204;48.942;9.256;2023-06-22T14:26:20;8.27;;;5.80;;
434;SDS011;204;48.942;9.256;2023-06-22T14:28:47;12.27;;;6.20;;
434;SDS011;204;48.942;9.256;2023-06-22T14:31:15;7.70;;;5.50;;
434;SDS011;204;48.942;9.256;2023-06-22T14:33:43;12.77;;;6.67;;
434;SDS011;204;48.942;9.256;2023-06-22T14:36:13;9.07;;;7.17;;
434;SDS011;204;48.942;9.256;2023-06-22T14:38:39;10.97;;;7.17;;
434;SDS011;204;48.942;9.256;2023-06-22T14:41:05;9.13;;;6.20;;
434;SDS011;204;48.942;9.256;2023-06-22T14:43:31;12.90;;;7.33;;
434;SDS011;204;48.942;9.256;2023-06-22T14:45:56;12.47;;;6.37;;
434;SDS011;204;48.942;9.256;2023-06-22T14:48:22;7.90;;;6.37;;
434;SDS011;204;48.942;9.256;2023-06-22T14:50:47;13.27;;;7.70;;
434;SDS011;204;48.942;9.256;2023-06-22T14:53:13;11.00;;;7.27;;
434;SDS011;204;48.942;9.256;2023-06-22T14:55:39;8.17;;;6.57;;
434;SDS011;204;48.942;9.256;2023-06-22T14:58:05;11.70;;;6.53;;
434;SDS011;204;48.942;9.256;2023-06-22T15:00:31;8.13;;;5.93;;
434;SDS011;204;48.942;9.256;2023-06-22T15:02:56;7.10;;;5.90;;
434;SDS011;204;48.942;9.256;2023-06-22T15:05:24;13.13;;;6.67;;
434;SDS011;204;48.942;9.256;2023-06-22T15:07:50;10.27;;;5.70;;
434;SDS011;204;48.942;9.256;2023-06-22T15:10:16;10.50;;;6.33;;
434;SDS011;204;48.942;9.256;2023-06-22T15:12:42;10.87;;;5.57;;
434;SDS011;204;48.942;9.256;2023-06-22T15:15:07;9.30;;;6.27;;
434;SDS011;204;48.942;9.256;2023-06-22T15:17:33;9.40;;;7.17;;
434;SDS011;204;48.942;9.256;2023-06-22T15:19:59;11.80;;;4.83;;
434;SDS011;204;48.942;9.256;2023-06-22T15:22:25;10.13;;;4.37;;
434;SDS011;204;48.942;9.256;2023-06-22T15:24:50;9.60;;;3.77;;
434;SDS011;204;48.942;9.256;2023-06-22T15:27:19;6.30;;;2.97;;
434;SDS011;204;48.942;9.256;2023-06-22T15:29:45;5.57;;;3.00;;
434;SDS011;204;48.942;9.256;2023-06-22T15:32:11;8.57;;;4.00;;
434;SDS011;204;48.942;9.256;2023-06-22T15:34:37;9.50;;;3.27;;
434;SDS011;204;48.942;9.256;2023-06-22T15:37:03;11.63;;;4.10;;
434;SDS011;204;48.942;9.256;2023-06-22T15:39:29;9.40;;;3.97;;
434;SDS011;204;48.942;9.256;2023-06-22T15:41:55;5.50;;;3.13;;
434;SDS011;204;48.942;9.256;2023-06-22T15:44:23;12.03;;;4.17;;